Time,TemperatureF,DewpointF,PressureIn,WindDirection,WindDirectionDegrees,WindSpeedMPH,WindSpeedGustMPH,Humidity,HourlyPrecipIn,Conditions,Clouds,dailyrainin,SoftwareType,DateUTC
2013-01-03 00:00:00,20.2,15.6,30.17,WSW,239,15.0,15.0,82,0.00,,,0.00,Wunderground v.1.15,2013-01-03 06:00:00,
2013-01-03 00:06:00,20.2,15.6,30.16,WSW,237,15.0,16.0,82,0.00,,,0.00,Wunderground v.1.15,2013-01-03 06:06:00,
2013-01-03 00:11:00,20.3,15.7,30.16,WSW,244,15.0,16.0,82,0.00,,,0.00,Wunderground v.1.15,2013-01-03 06:11:00,
2013-01-03 00:16:00,20.3,15.7,30.16,WSW,239,15.0,17.0,82,0.00,,,0.00,Wunderground v.1.15,2013-01-03 06:16:00,
2013-01-03 00:21:00,20.2,15.6,30.16,WSW,244,16.0,16.0,82,0.00,,,0.00,Wunderground v.1.15,2013-01-03 06:21:00,
2013-01-03 00:26:00,20.2,15.6,30.16,SW,224,16.0,17.0,82,0.00,,,0.00,Wunderground v.1.15,2013-01-03 06:26:00,
2013-01-03 00:31:00,20.2,15.9,30.16,SW,236,15.0,15.0,83,0.00,,,0.00,Wunderground v.1.15,2013-01-03 06:31:00,
2013-01-03 00:36:00,20.1,15.8,30.16,SW,232,14.0,15.0,83,0.00,,,0.00,Wunderground v.1.15,2013-01-03 06:36:00,
2013-01-03 00:41:00,20.1,15.8,30.16,WSW,239,14.0,14.0,83,0.00,,,0.00,Wunderground v.1.15,2013-01-03 06:41:00,
2013-01-03 00:46:00,20.2,15.9,30.16,WSW,246,13.0,14.0,83,0.00,,,0.00,Wunderground v.1.15,2013-01-03 06:46:00,
2013-01-03 00:51:00,20.3,16.0,30.16,WSW,244,13.0,13.0,83,0.00,,,0.00,Wunderground v.1.15,2013-01-03 06:51:00,
2013-01-03 00:56:00,20.5,16.2,30.16,WSW,240,13.0,16.0,83,0.00,,,0.00,Wunderground v.1.15,2013-01-03 06:56:00,
2013-01-03 01:02:00,20.6,16.3,30.16,WSW,241,15.0,15.0,83,0.00,,,0.00,Wunderground v.1.15,2013-01-03 07:02:00,
2013-01-03 01:07:00,20.6,16.3,30.16,WSW,246,15.0,16.0,83,0.00,,,0.00,Wunderground v.1.15,2013-01-03 07:07:00,
2013-01-03 01:13:00,20.7,16.4,30.16,WSW,241,15.0,16.0,83,0.00,,,0.00,Wunderground v.1.15,2013-01-03 07:13:00,
2013-01-03 01:19:00,20.9,16.5,30.15,WSW,239,15.0,18.0,83,0.00,,,0.00,Wunderground v.1.15,2013-01-03 07:19:00,
2013-01-03 01:24:00,21.1,16.7,30.16,WSW,247,15.0,17.0,83,0.00,,,0.00,Wunderground v.1.15,2013-01-03 07:24:00,
2013-01-03 01:29:00,21.2,16.8,30.16,WSW,239,15.0,17.0,83,0.00,,,0.00,Wunderground v.1.15,2013-01-03 07:29:00,
2013-01-03 01:35:00,21.2,16.8,30.17,WSW,243,16.0,17.0,83,0.00,,,0.00,Wunderground v.1.15,2013-01-03 07:35:00,
2013-01-03 01:41:00,21.2,16.8,30.16,WSW,251,15.0,15.0,83,0.00,,,0.00,Wunderground v.1.15,2013-01-03 07:41:00,
2013-01-03 01:46:00,21.2,17.1,30.17,WSW,246,14.0,15.0,84,0.00,,,0.00,Wunderground v.1.15,2013-01-03 07:46:00,
2013-01-03 01:51:00,21.2,17.1,30.16,WSW,244,13.0,13.0,84,0.00,,,0.00,Wunderground v.1.15,2013-01-03 07:51:00,
2013-01-03 01:57:00,21.3,17.2,30.16,SW,232,12.0,13.0,84,0.00,,,0.00,Wunderground v.1.15,2013-01-03 07:57:00,
2013-01-03 02:02:00,21.5,17.4,30.17,WSW,247,12.0,14.0,84,0.00,,,0.00,Wunderground v.1.15,2013-01-03 08:02:00,
2013-01-03 02:08:00,21.5,17.1,30.17,WSW,244,12.0,14.0,83,0.00,,,0.00,Wunderground v.1.15,2013-01-03 08:08:00,
2013-01-03 02:13:00,21.3,17.2,30.17,WSW,251,12.0,12.0,84,0.00,,,0.00,Wunderground v.1.15,2013-01-03 08:13:00,
2013-01-03 02:18:00,21.3,17.2,30.17,WSW,241,11.0,13.0,84,0.00,,,0.00,Wunderground v.1.15,2013-01-03 08:18:00,
2013-01-03 02:24:00,21.3,17.5,30.17,WSW,258,10.0,11.0,85,0.00,,,0.00,Wunderground v.1.15,2013-01-03 08:24:00,
2013-01-03 02:29:00,21.5,17.7,30.17,WSW,244,11.0,13.0,85,0.00,,,0.00,Wunderground v.1.15,2013-01-03 08:29:00,
2013-01-03 02:35:00,21.9,18.1,30.17,West,267,11.0,12.0,85,0.00,,,0.00,Wunderground v.1.15,2013-01-03 08:35:00,
2013-01-03 02:40:00,22.1,18.0,30.17,SW,235,12.0,14.0,84,0.00,,,0.00,Wunderground v.1.15,2013-01-03 08:40:00,
2013-01-03 02:45:00,22.3,18.2,30.17,WSW,257,13.0,14.0,84,0.00,,,0.00,Wunderground v.1.15,2013-01-03 08:45:00,
2013-01-03 02:50:00,22.5,18.7,30.17,WSW,247,13.0,13.0,85,0.00,,,0.00,Wunderground v.1.15,2013-01-03 08:50:00,
2013-01-03 02:55:00,22.5,18.7,30.17,WSW,249,12.0,13.0,85,0.00,,,0.00,Wunderground v.1.15,2013-01-03 08:55:00,
2013-01-03 03:00:00,22.6,18.8,30.17,WSW,247,11.0,13.0,85,0.00,,,0.00,Wunderground v.1.15,2013-01-03 09:00:00,
2013-01-03 03:06:00,22.7,18.9,30.17,WSW,257,12.0,13.0,85,0.00,,,0.00,Wunderground v.1.15,2013-01-03 09:06:00,
2013-01-03 03:11:00,22.6,18.5,30.17,SW,230,11.0,13.0,84,0.00,,,0.00,Wunderground v.1.15,2013-01-03 09:11:00,
2013-01-03 03:16:00,22.4,18.6,30.17,WSW,239,10.0,13.0,85,0.00,,,0.00,Wunderground v.1.15,2013-01-03 09:16:00,
2013-01-03 03:21:00,22.4,18.8,30.17,WSW,239,10.0,12.0,86,0.00,,,0.00,Wunderground v.1.15,2013-01-03 09:21:00,
2013-01-03 03:26:00,22.7,19.1,30.17,WSW,246,10.0,12.0,86,0.00,,,0.00,Wunderground v.1.15,2013-01-03 09:26:00,
2013-01-03 03:32:00,22.9,19.3,30.18,SW,235,11.0,11.0,86,0.00,,,0.00,Wunderground v.1.15,2013-01-03 09:32:00,
2013-01-03 03:37:00,23.0,19.4,30.18,WSW,254,11.0,15.0,86,0.00,,,0.00,Wunderground v.1.15,2013-01-03 09:37:00,
2013-01-03 03:42:00,23.2,19.6,30.18,WSW,237,11.0,11.0,86,0.00,,,0.00,Wunderground v.1.15,2013-01-03 09:42:00,
2013-01-03 03:48:00,23.3,19.7,30.18,WSW,241,11.0,12.0,86,0.00,,,0.00,Wunderground v.1.15,2013-01-03 09:48:00,
2013-01-03 03:53:00,23.5,19.9,30.18,WSW,242,11.0,12.0,86,0.00,,,0.00,Wunderground v.1.15,2013-01-03 09:53:00,
2013-01-03 03:58:00,23.6,20.0,30.18,WSW,237,11.0,12.0,86,0.00,,,0.00,Wunderground v.1.15,2013-01-03 09:58:00,
2013-01-03 04:04:00,23.9,20.3,30.17,WSW,243,11.0,12.0,86,0.00,,,0.00,Wunderground v.1.15,2013-01-03 10:04:00,
2013-01-03 04:09:00,24.0,20.4,30.17,WSW,244,12.0,13.0,86,0.00,,,0.00,Wunderground v.1.15,2013-01-03 10:09:00,
2013-01-03 04:14:00,24.2,20.6,30.17,WSW,244,12.0,13.0,86,0.00,,,0.00,Wunderground v.1.15,2013-01-03 10:14:00,
2013-01-03 04:19:00,24.3,20.4,30.18,WSW,251,12.0,13.0,85,0.00,,,0.00,Wunderground v.1.15,2013-01-03 10:19:00,
2013-01-03 04:24:00,24.4,20.8,30.18,WSW,239,12.0,13.0,86,0.00,,,0.00,Wunderground v.1.15,2013-01-03 10:24:00,
2013-01-03 04:29:00,24.4,20.8,30.18,WSW,258,11.0,13.0,86,0.00,,,0.00,Wunderground v.1.15,2013-01-03 10:29:00,
2013-01-03 04:35:00,24.5,20.9,30.18,WSW,247,11.0,12.0,86,0.00,,,0.00,Wunderground v.1.15,2013-01-03 10:35:00,
2013-01-03 04:40:00,24.5,20.9,30.18,WSW,243,11.0,11.0,86,0.00,,,0.00,Wunderground v.1.15,2013-01-03 10:40:00,
2013-01-03 04:45:00,24.3,20.4,30.18,WSW,243,11.0,11.0,85,0.00,,,0.00,Wunderground v.1.15,2013-01-03 10:45:00,
2013-01-03 04:50:00,23.8,20.2,30.18,WSW,240,10.0,10.0,86,0.00,,,0.00,Wunderground v.1.15,2013-01-03 10:50:00,
2013-01-03 04:55:00,23.5,20.2,30.18,WSW,245,9.0,10.0,87,0.00,,,0.00,Wunderground v.1.15,2013-01-03 10:55:00,
2013-01-03 05:00:00,23.5,20.2,30.18,WSW,239,9.0,9.0,87,0.00,,,0.00,Wunderground v.1.15,2013-01-03 11:00:00,
2013-01-03 05:06:00,23.5,20.2,30.18,SW,235,9.0,11.0,87,0.00,,,0.00,Wunderground v.1.15,2013-01-03 11:06:00,
2013-01-03 05:11:00,23.6,20.3,30.18,WSW,243,10.0,10.0,87,0.00,,,0.00,Wunderground v.1.15,2013-01-03 11:11:00,
2013-01-03 05:16:00,23.6,20.3,30.18,WSW,246,9.0,11.0,87,0.00,,,0.00,Wunderground v.1.15,2013-01-03 11:16:00,
2013-01-03 05:22:00,23.7,20.7,30.19,SW,230,10.0,10.0,88,0.00,,,0.00,Wunderground v.1.15,2013-01-03 11:22:00,
2013-01-03 05:28:00,23.7,20.7,30.19,WSW,240,10.0,11.0,88,0.00,,,0.00,Wunderground v.1.15,2013-01-03 11:28:00,
2013-01-03 05:33:00,23.7,20.7,30.19,WSW,238,9.0,10.0,88,0.00,,,0.00,Wunderground v.1.15,2013-01-03 11:33:00,
2013-01-03 05:38:00,23.7,20.7,30.19,WSW,244,9.0,10.0,88,0.00,,,0.00,Wunderground v.1.15,2013-01-03 11:38:00,
2013-01-03 05:43:00,23.8,20.8,30.19,WSW,244,9.0,11.0,88,0.00,,,0.00,Wunderground v.1.15,2013-01-03 11:43:00,
2013-01-03 05:48:00,24.1,21.3,30.19,WSW,244,10.0,13.0,89,0.00,,,0.00,Wunderground v.1.15,2013-01-03 11:48:00,
2013-01-03 05:53:00,24.4,21.4,30.19,WSW,247,11.0,12.0,88,0.00,,,0.00,Wunderground v.1.15,2013-01-03 11:53:00,
2013-01-03 05:59:00,24.3,21.3,30.19,WSW,244,11.0,12.0,88,0.00,,,0.00,Wunderground v.1.15,2013-01-03 11:59:00,
2013-01-03 06:04:00,24.1,21.1,30.19,WSW,239,10.0,11.0,88,0.00,,,0.00,Wunderground v.1.15,2013-01-03 12:04:00,
2013-01-03 06:09:00,24.1,21.3,30.19,WSW,244,11.0,11.0,89,0.00,,,0.00,Wunderground v.1.15,2013-01-03 12:09:00,
2013-01-03 06:14:00,24.2,21.4,30.19,WSW,239,11.0,12.0,89,0.00,,,0.00,Wunderground v.1.15,2013-01-03 12:14:00,
2013-01-03 06:19:00,24.7,21.9,30.19,WSW,237,11.0,12.0,89,0.00,,,0.00,Wunderground v.1.15,2013-01-03 12:19:00,
2013-01-03 06:24:00,24.9,22.1,30.20,WSW,253,11.0,12.0,89,0.00,,,0.00,Wunderground v.1.15,2013-01-03 12:24:00,
2013-01-03 06:30:00,25.0,22.2,30.20,WSW,250,10.0,10.0,89,0.00,,,0.00,Wunderground v.1.15,2013-01-03 12:30:00,
2013-01-03 06:35:00,25.2,22.4,30.20,WSW,251,10.0,12.0,89,0.00,,,0.00,Wunderground v.1.15,2013-01-03 12:35:00,
2013-01-03 06:40:00,25.2,22.4,30.20,WSW,249,10.0,10.0,89,0.00,,,0.00,Wunderground v.1.15,2013-01-03 12:40:00,
2013-01-03 06:45:00,25.1,22.3,30.19,WSW,253,10.0,13.0,89,0.00,,,0.00,Wunderground v.1.15,2013-01-03 12:45:00,
2013-01-03 06:50:00,25.1,22.3,30.19,West,260,11.0,11.0,89,0.00,,,0.00,Wunderground v.1.15,2013-01-03 12:50:00,
2013-01-03 06:55:00,25.0,22.2,30.19,WSW,240,10.0,11.0,89,0.00,,,0.00,Wunderground v.1.15,2013-01-03 12:55:00,
2013-01-03 07:00:00,25.0,22.5,30.19,WSW,251,8.0,8.0,90,0.00,,,0.00,Wunderground v.1.15,2013-01-03 13:00:00,
2013-01-03 07:06:00,25.1,22.6,30.19,WSW,245,8.0,11.0,90,0.00,,,0.00,Wunderground v.1.15,2013-01-03 13:06:00,
2013-01-03 07:11:00,25.3,22.8,30.19,SW,233,8.0,10.0,90,0.00,,,0.00,Wunderground v.1.15,2013-01-03 13:11:00,
2013-01-03 07:16:00,25.4,22.9,30.20,WSW,251,8.0,10.0,90,0.00,,,0.00,Wunderground v.1.15,2013-01-03 13:16:00,
2013-01-03 07:21:00,25.4,22.9,30.19,WSW,256,8.0,9.0,90,0.00,,,0.00,Wunderground v.1.15,2013-01-03 13:21:00,
2013-01-03 07:26:00,25.4,22.9,30.19,West,264,7.0,9.0,90,0.00,,,0.00,Wunderground v.1.15,2013-01-03 13:26:00,
2013-01-03 07:31:00,25.5,23.0,30.20,West,277,7.0,9.0,90,0.00,,,0.00,Wunderground v.1.15,2013-01-03 13:31:00,
2013-01-03 07:36:00,25.6,23.1,30.19,WSW,256,7.0,9.0,90,0.00,,,0.00,Wunderground v.1.15,2013-01-03 13:36:00,
2013-01-03 07:41:00,25.8,23.5,30.19,SW,230,8.0,12.0,91,0.00,,,0.00,Wunderground v.1.15,2013-01-03 13:41:00,
2013-01-03 07:46:00,26.0,23.5,30.19,WSW,239,9.0,12.0,90,0.00,,,0.00,Wunderground v.1.15,2013-01-03 13:46:00,
2013-01-03 07:51:00,26.1,23.6,30.19,WSW,258,9.0,11.0,90,0.00,,,0.00,Wunderground v.1.15,2013-01-03 13:51:00,
2013-01-03 07:56:00,26.1,23.6,30.21,WSW,239,10.0,11.0,90,0.00,,,0.00,Wunderground v.1.15,2013-01-03 13:56:00,
2013-01-03 08:01:00,26.1,23.6,30.20,WSW,239,10.0,10.0,90,0.00,,,0.00,Wunderground v.1.15,2013-01-03 14:01:00,
2013-01-03 08:06:00,26.1,23.6,30.20,WSW,257,10.0,12.0,90,0.00,,,0.00,Wunderground v.1.15,2013-01-03 14:06:00,
2013-01-03 08:11:00,26.0,23.5,30.21,WSW,237,10.0,10.0,90,0.00,,,0.00,Wunderground v.1.15,2013-01-03 14:11:00,
2013-01-03 08:16:00,26.1,23.6,30.21,WSW,249,9.0,10.0,90,0.00,,,0.00,Wunderground v.1.15,2013-01-03 14:16:00,
2013-01-03 08:21:00,26.2,23.7,30.21,WSW,253,10.0,10.0,90,0.00,,,0.00,Wunderground v.1.15,2013-01-03 14:21:00,
2013-01-03 08:27:00,26.3,23.8,30.22,WSW,252,10.0,14.0,90,0.00,,,0.00,Wunderground v.1.15,2013-01-03 14:27:00,
2013-01-03 08:32:00,26.3,23.8,30.22,West,265,10.0,11.0,90,0.00,,,0.00,Wunderground v.1.15,2013-01-03 14:32:00,
2013-01-03 08:38:00,26.6,24.1,30.22,WSW,257,10.0,13.0,90,0.00,,,0.00,Wunderground v.1.15,2013-01-03 14:38:00,
2013-01-03 08:43:00,26.7,24.2,30.22,WSW,258,10.0,12.0,90,0.00,,,0.00,Wunderground v.1.15,2013-01-03 14:43:00,
2013-01-03 08:48:00,26.9,24.4,30.22,West,265,9.0,12.0,90,0.00,,,0.00,Wunderground v.1.15,2013-01-03 14:48:00,
2013-01-03 08:53:00,27.1,24.6,30.22,West,261,10.0,11.0,90,0.00,,,0.00,Wunderground v.1.15,2013-01-03 14:53:00,
2013-01-03 08:58:00,27.2,24.7,30.23,WSW,254,10.0,12.0,90,0.00,,,0.00,Wunderground v.1.15,2013-01-03 14:58:00,
2013-01-03 09:04:00,27.5,25.0,30.23,WSW,251,10.0,12.0,90,0.00,,,0.00,Wunderground v.1.15,2013-01-03 15:04:00,
2013-01-03 09:09:00,27.6,25.1,30.23,WSW,253,10.0,14.0,90,0.00,,,0.00,Wunderground v.1.15,2013-01-03 15:09:00,
2013-01-03 09:14:00,27.7,25.2,30.23,WSW,245,10.0,13.0,90,0.00,,,0.00,Wunderground v.1.15,2013-01-03 15:14:00,
2013-01-03 09:19:00,27.8,25.2,30.23,WSW,244,10.0,13.0,90,0.00,,,0.00,Wunderground v.1.15,2013-01-03 15:19:00,
2013-01-03 09:24:00,28.0,25.4,30.23,West,260,10.0,11.0,90,0.00,,,0.00,Wunderground v.1.15,2013-01-03 15:24:00,
2013-01-03 09:29:00,28.1,25.5,30.24,WSW,254,10.0,11.0,90,0.00,,,0.00,Wunderground v.1.15,2013-01-03 15:29:00,
2013-01-03 09:34:00,28.2,25.6,30.24,West,271,9.0,10.0,90,0.00,,,0.00,Wunderground v.1.15,2013-01-03 15:34:00,
2013-01-03 09:39:00,28.4,25.8,30.24,West,260,9.0,12.0,90,0.00,,,0.00,Wunderground v.1.15,2013-01-03 15:39:00,
2013-01-03 09:44:00,28.5,25.9,30.24,West,269,10.0,11.0,90,0.00,,,0.00,Wunderground v.1.15,2013-01-03 15:44:00,
2013-01-03 09:49:00,28.7,25.9,30.25,SW,232,10.0,13.0,89,0.00,,,0.00,Wunderground v.1.15,2013-01-03 15:49:00,
2013-01-03 09:54:00,28.8,26.0,30.25,WSW,244,10.0,10.0,89,0.00,,,0.00,Wunderground v.1.15,2013-01-03 15:54:00,
2013-01-03 09:59:00,29.0,26.4,30.25,West,265,10.0,13.0,90,0.00,,,0.00,Wunderground v.1.15,2013-01-03 15:59:00,
2013-01-03 10:05:00,29.1,26.3,30.25,West,267,10.0,13.0,89,0.00,,,0.00,Wunderground v.1.15,2013-01-03 16:05:00,
2013-01-03 10:10:00,29.2,26.4,30.25,WSW,244,9.0,9.0,89,0.00,,,0.00,Wunderground v.1.15,2013-01-03 16:10:00,
2013-01-03 10:15:00,29.3,26.5,30.25,WSW,244,9.0,11.0,89,0.00,,,0.00,Wunderground v.1.15,2013-01-03 16:15:00,
2013-01-03 10:20:00,29.4,26.6,30.25,WSW,242,9.0,9.0,89,0.00,,,0.00,Wunderground v.1.15,2013-01-03 16:20:00,
2013-01-03 10:25:00,29.7,26.9,30.25,WNW,294,9.0,14.0,89,0.00,,,0.00,Wunderground v.1.15,2013-01-03 16:25:00,
2013-01-03 10:30:00,29.9,26.5,30.25,West,268,11.0,18.0,87,0.00,,,0.00,Wunderground v.1.15,2013-01-03 16:30:00,
2013-01-03 10:36:00,30.0,26.0,30.25,WNW,284,13.0,18.0,85,0.00,,,0.00,Wunderground v.1.15,2013-01-03 16:36:00,
2013-01-03 10:41:00,30.0,26.0,30.25,WNW,295,13.0,16.0,85,0.00,,,0.00,Wunderground v.1.15,2013-01-03 16:41:00,
2013-01-03 10:47:00,30.1,26.1,30.25,West,265,11.0,16.0,85,0.00,,,0.00,Wunderground v.1.15,2013-01-03 16:47:00,
2013-01-03 10:52:00,30.1,26.1,30.25,West,277,11.0,14.0,85,0.00,,,0.00,Wunderground v.1.15,2013-01-03 16:52:00,
2013-01-03 10:57:00,30.1,26.1,30.25,West,263,12.0,16.0,85,0.00,,,0.00,Wunderground v.1.15,2013-01-03 16:57:00,
2013-01-03 11:03:00,30.1,25.8,30.25,West,270,12.0,17.0,84,0.00,,,0.00,Wunderground v.1.15,2013-01-03 17:03:00,
2013-01-03 11:09:00,30.0,25.5,30.25,WNW,286,13.0,17.0,83,0.00,,,0.00,Wunderground v.1.15,2013-01-03 17:09:00,
2013-01-03 11:14:00,29.9,25.7,30.25,West,268,11.0,13.0,84,0.00,,,0.00,Wunderground v.1.15,2013-01-03 17:14:00,
2013-01-03 11:19:00,29.9,25.9,30.25,West,277,11.0,13.0,85,0.00,,,0.00,Wunderground v.1.15,2013-01-03 17:19:00,
2013-01-03 11:25:00,29.8,25.3,30.25,West,272,12.0,15.0,83,0.00,,,0.00,Wunderground v.1.15,2013-01-03 17:25:00,
2013-01-03 11:30:00,29.8,25.6,30.25,West,272,11.0,16.0,84,0.00,,,0.00,Wunderground v.1.15,2013-01-03 17:30:00,
2013-01-03 11:35:00,29.9,25.7,30.25,West,272,10.0,16.0,84,0.00,,,0.00,Wunderground v.1.15,2013-01-03 17:35:00,
2013-01-03 11:40:00,30.0,25.8,30.25,West,269,11.0,11.0,84,0.00,,,0.00,Wunderground v.1.15,2013-01-03 17:40:00,
2013-01-03 11:45:00,30.1,26.1,30.25,West,260,10.0,11.0,85,0.00,,,0.00,Wunderground v.1.15,2013-01-03 17:45:00,
2013-01-03 11:50:00,30.0,25.8,30.25,West,268,10.0,10.0,84,0.00,,,0.00,Wunderground v.1.15,2013-01-03 17:50:00,
2013-01-03 11:56:00,30.1,25.8,30.25,West,260,10.0,17.0,84,0.00,,,0.00,Wunderground v.1.15,2013-01-03 17:56:00,
2013-01-03 12:02:00,30.0,25.5,30.25,WNW,282,12.0,16.0,83,0.00,,,0.00,Wunderground v.1.15,2013-01-03 18:02:00,
2013-01-03 12:07:00,30.0,25.5,30.24,West,268,14.0,17.0,83,0.00,,,0.00,Wunderground v.1.15,2013-01-03 18:07:00,
2013-01-03 12:12:00,30.0,25.8,30.24,West,261,12.0,15.0,84,0.00,,,0.00,Wunderground v.1.15,2013-01-03 18:12:00,
2013-01-03 12:17:00,30.0,25.8,30.24,West,273,12.0,15.0,84,0.00,,,0.00,Wunderground v.1.15,2013-01-03 18:17:00,
2013-01-03 12:23:00,30.1,26.1,30.24,West,277,11.0,14.0,85,0.00,,,0.00,Wunderground v.1.15,2013-01-03 18:23:00,
2013-01-03 12:28:00,30.1,26.1,30.23,West,268,10.0,14.0,85,0.00,,,0.00,Wunderground v.1.15,2013-01-03 18:28:00,
2013-01-03 12:33:00,30.0,26.0,30.23,West,276,11.0,11.0,85,0.00,,,0.00,Wunderground v.1.15,2013-01-03 18:33:00,
2013-01-03 12:38:00,30.1,26.4,30.23,West,270,10.0,12.0,86,0.00,,,0.00,Wunderground v.1.15,2013-01-03 18:38:00,
2013-01-03 12:43:00,30.0,26.0,30.23,West,270,10.0,13.0,85,0.00,,,0.00,Wunderground v.1.15,2013-01-03 18:43:00,
2013-01-03 12:49:00,30.0,26.0,30.23,West,276,11.0,13.0,85,0.00,,,0.00,Wunderground v.1.15,2013-01-03 18:49:00,
2013-01-03 12:54:00,30.1,26.1,30.23,West,269,11.0,13.0,85,0.00,,,0.00,Wunderground v.1.15,2013-01-03 18:54:00,
2013-01-03 12:59:00,30.1,26.1,30.23,West,270,12.0,14.0,85,0.00,,,0.00,Wunderground v.1.15,2013-01-03 18:59:00,
2013-01-03 13:05:00,30.2,25.9,30.23,West,272,13.0,20.0,84,0.00,,,0.00,Wunderground v.1.15,2013-01-03 19:05:00,
2013-01-03 13:10:00,30.3,25.8,30.23,WNW,288,14.0,19.0,83,0.00,,,0.00,Wunderground v.1.15,2013-01-03 19:10:00,
2013-01-03 13:15:00,30.4,25.6,30.23,West,274,14.0,19.0,82,0.00,,,0.00,Wunderground v.1.15,2013-01-03 19:15:00,
2013-01-03 13:51:00,30.2,25.7,30.24,WNW,301,12.0,22.0,83,0.00,,,0.00,Wunderground v.1.15,2013-01-03 19:51:00,
2013-01-03 13:57:00,29.9,25.1,30.24,WNW,282,17.0,22.0,82,0.00,,,0.00,Wunderground v.1.15,2013-01-03 19:57:00,
2013-01-03 14:02:00,29.8,25.0,30.24,WNW,288,17.0,19.0,82,0.00,,,0.00,Wunderground v.1.15,2013-01-03 20:02:00,
2013-01-03 14:07:00,29.9,25.1,30.24,WNW,289,15.0,19.0,82,0.00,,,0.00,Wunderground v.1.15,2013-01-03 20:07:00,
2013-01-03 14:12:00,29.9,25.1,30.24,West,270,15.0,18.0,82,0.00,,,0.00,Wunderground v.1.15,2013-01-03 20:12:00,
2013-01-03 14:17:00,29.8,24.7,30.24,WSW,253,16.0,20.0,81,0.00,,,0.00,Wunderground v.1.15,2013-01-03 20:17:00,
2013-01-03 14:22:00,29.8,24.7,30.25,West,275,15.0,20.0,81,0.00,,,0.00,Wunderground v.1.15,2013-01-03 20:22:00,
2013-01-03 14:28:00,29.7,24.3,30.25,WNW,296,15.0,22.0,80,0.00,,,0.00,Wunderground v.1.15,2013-01-03 20:28:00,
2013-01-03 14:33:00,29.5,23.5,30.25,West,269,17.0,24.0,78,0.00,,,0.00,Wunderground v.1.15,2013-01-03 20:33:00,
2013-01-03 14:38:00,29.4,23.1,30.25,WNW,294,19.0,24.0,77,0.00,,,0.00,Wunderground v.1.15,2013-01-03 20:38:00,
2013-01-03 14:43:00,29.2,22.9,30.25,West,276,17.0,24.0,77,0.00,,,0.00,Wunderground v.1.15,2013-01-03 20:43:00,
2013-01-03 14:48:00,29.2,22.9,30.26,WSW,256,15.0,24.0,77,0.00,,,0.00,Wunderground v.1.15,2013-01-03 20:48:00,
2013-01-03 14:53:00,29.2,22.6,30.25,WSW,253,15.0,16.0,76,0.00,,,0.00,Wunderground v.1.15,2013-01-03 20:53:00,
2013-01-03 14:58:00,29.2,22.6,30.26,WNW,288,15.0,18.0,76,0.00,,,0.00,Wunderground v.1.15,2013-01-03 20:58:00,
2013-01-03 15:04:00,29.1,22.5,30.26,West,271,15.0,20.0,76,0.00,,,0.00,Wunderground v.1.15,2013-01-03 21:04:00,
2013-01-03 15:09:00,29.0,23.0,30.26,West,280,14.0,20.0,78,0.00,,,0.00,Wunderground v.1.15,2013-01-03 21:09:00,
2013-01-03 15:14:00,28.9,22.6,30.26,West,280,13.0,14.0,77,0.00,,,0.00,Wunderground v.1.15,2013-01-03 21:14:00,
2013-01-03 15:19:00,28.8,21.9,30.26,WNW,283,13.0,17.0,75,0.00,,,0.00,Wunderground v.1.15,2013-01-03 21:19:00,
2013-01-03 15:24:00,28.6,22.0,30.26,WNW,282,14.0,17.0,76,0.00,,,0.00,Wunderground v.1.15,2013-01-03 21:24:00,
2013-01-03 15:29:00,28.5,21.9,30.27,WNW,292,13.0,17.0,76,0.00,,,0.00,Wunderground v.1.15,2013-01-03 21:29:00,
2013-01-03 15:34:00,28.3,21.7,30.27,WNW,284,12.0,18.0,76,0.00,,,0.00,Wunderground v.1.15,2013-01-03 21:34:00,
2013-01-03 15:39:00,28.2,21.6,30.27,WNW,282,13.0,18.0,76,0.00,,,0.00,Wunderground v.1.15,2013-01-03 21:39:00,
2013-01-03 15:44:00,28.0,21.4,30.27,WNW,286,12.0,13.0,76,0.00,,,0.00,Wunderground v.1.15,2013-01-03 21:44:00,
2013-01-03 15:50:00,27.8,21.5,30.27,WNW,292,10.0,10.0,77,0.00,,,0.00,Wunderground v.1.15,2013-01-03 21:50:00,
2013-01-03 15:55:00,27.7,21.4,30.27,West,276,9.0,14.0,77,0.00,,,0.00,Wunderground v.1.15,2013-01-03 21:55:00,
2013-01-03 16:00:00,27.5,21.2,30.27,West,274,9.0,9.0,77,0.00,,,0.00,Wunderground v.1.15,2013-01-03 22:00:00,
2013-01-03 16:06:00,27.4,21.1,30.27,West,275,8.0,10.0,77,0.00,,,0.00,Wunderground v.1.15,2013-01-03 22:06:00,
2013-01-03 16:11:00,27.1,20.5,30.28,WNW,290,8.0,8.0,76,0.00,,,0.00,Wunderground v.1.15,2013-01-03 22:11:00,
2013-01-03 16:16:00,26.7,20.1,30.28,WSW,251,8.0,8.0,76,0.00,,,0.00,Wunderground v.1.15,2013-01-03 22:16:00,
2013-01-03 16:21:00,26.3,19.8,30.28,WNW,282,7.0,7.0,76,0.00,,,0.00,Wunderground v.1.15,2013-01-03 22:21:00,
2013-01-03 16:26:00,25.9,19.7,30.28,West,277,7.0,8.0,77,0.00,,,0.00,Wunderground v.1.15,2013-01-03 22:26:00,
2013-01-03 16:31:00,25.5,19.3,30.28,WNW,297,7.0,7.0,77,0.00,,,0.00,Wunderground v.1.15,2013-01-03 22:31:00,
2013-01-03 16:36:00,25.0,19.1,30.28,West,267,7.0,8.0,78,0.00,,,0.00,Wunderground v.1.15,2013-01-03 22:36:00,
2013-01-03 16:42:00,24.4,18.5,30.28,West,263,7.0,7.0,78,0.00,,,0.00,Wunderground v.1.15,2013-01-03 22:42:00,
2013-01-03 16:47:00,24.0,18.4,30.28,WNW,289,7.0,8.0,79,0.00,,,0.00,Wunderground v.1.15,2013-01-03 22:47:00,
2013-01-03 16:52:00,23.8,18.5,30.28,WNW,301,9.0,12.0,80,0.00,,,0.00,Wunderground v.1.15,2013-01-03 22:52:00,
2013-01-03 16:57:00,23.7,18.4,30.29,WNW,299,11.0,12.0,80,0.00,,,0.00,Wunderground v.1.15,2013-01-03 22:57:00,
2013-01-03 17:02:00,23.6,18.3,30.29,WNW,288,11.0,14.0,80,0.00,,,0.00,Wunderground v.1.15,2013-01-03 23:02:00,
2013-01-03 17:07:00,23.6,18.0,30.29,WNW,285,11.0,14.0,79,0.00,,,0.00,Wunderground v.1.15,2013-01-03 23:07:00,
2013-01-03 17:12:00,23.6,18.0,30.30,WSW,258,11.0,13.0,79,0.00,,,0.00,Wunderground v.1.15,2013-01-03 23:12:00,
2013-01-03 17:17:00,23.3,17.7,30.30,West,271,9.0,13.0,79,0.00,,,0.00,Wunderground v.1.15,2013-01-03 23:17:00,
2013-01-03 17:22:00,22.9,17.7,30.30,WNW,286,7.0,13.0,80,0.00,,,0.00,Wunderground v.1.15,2013-01-03 23:22:00,
2013-01-03 17:27:00,22.5,17.3,30.30,West,280,8.0,13.0,80,0.00,,,0.00,Wunderground v.1.15,2013-01-03 23:27:00,
2013-01-03 17:32:00,21.8,16.9,30.30,WSW,251,6.0,7.0,81,0.00,,,0.00,Wunderground v.1.15,2013-01-03 23:32:00,
2013-01-03 17:37:00,20.8,16.2,30.31,West,265,6.0,8.0,82,0.00,,,0.00,Wunderground v.1.15,2013-01-03 23:37:00,
2013-01-03 17:43:00,20.4,16.1,30.31,West,277,7.0,7.0,83,0.00,,,0.00,Wunderground v.1.15,2013-01-03 23:43:00,
2013-01-03 17:48:00,19.9,15.6,30.31,West,265,7.0,7.0,83,0.00,,,0.00,Wunderground v.1.15,2013-01-03 23:48:00,
2013-01-03 17:53:00,19.4,15.4,30.31,West,265,7.0,8.0,84,0.00,,,0.00,Wunderground v.1.15,2013-01-03 23:53:00,
2013-01-03 17:58:00,19.2,15.2,30.31,West,272,7.0,8.0,84,0.00,,,0.00,Wunderground v.1.15,2013-01-03 23:58:00,
2013-01-03 18:04:00,18.9,14.9,30.32,West,269,7.0,7.0,84,0.00,,,0.00,Wunderground v.1.15,2013-01-04 00:04:00,
2013-01-03 18:09:00,18.6,14.6,30.32,West,263,7.0,8.0,84,0.00,,,0.00,Wunderground v.1.15,2013-01-04 00:09:00,
2013-01-03 18:15:00,18.3,14.3,30.32,West,266,7.0,9.0,84,0.00,,,0.00,Wunderground v.1.15,2013-01-04 00:15:00,
2013-01-03 18:20:00,17.9,14.2,30.32,West,275,8.0,10.0,85,0.00,,,0.00,Wunderground v.1.15,2013-01-04 00:20:00,
2013-01-03 18:25:00,17.9,14.4,30.32,West,264,9.0,10.0,86,0.00,,,0.00,Wunderground v.1.15,2013-01-04 00:25:00,
2013-01-03 18:31:00,17.8,14.3,30.32,West,269,7.0,8.0,86,0.00,,,0.00,Wunderground v.1.15,2013-01-04 00:31:00,
2013-01-03 18:36:00,17.9,14.4,30.32,West,279,6.0,8.0,86,0.00,,,0.00,Wunderground v.1.15,2013-01-04 00:36:00,
2013-01-03 18:41:00,18.0,14.5,30.32,West,260,6.0,7.0,86,0.00,,,0.00,Wunderground v.1.15,2013-01-04 00:41:00,
2013-01-03 18:46:00,18.2,14.7,30.32,West,272,5.0,7.0,86,0.00,,,0.00,Wunderground v.1.15,2013-01-04 00:46:00,
2013-01-03 18:51:00,17.9,14.2,30.33,West,277,5.0,8.0,85,0.00,,,0.00,Wunderground v.1.15,2013-01-04 00:51:00,
2013-01-03 18:56:00,17.5,13.8,30.33,West,275,6.0,8.0,85,0.00,,,0.00,Wunderground v.1.15,2013-01-04 00:56:00,
2013-01-03 19:02:00,17.1,13.6,30.33,West,266,7.0,7.0,86,0.00,,,0.00,Wunderground v.1.15,2013-01-04 01:02:00,
2013-01-03 19:07:00,16.8,13.3,30.33,West,276,6.0,7.0,86,0.00,,,0.00,Wunderground v.1.15,2013-01-04 01:07:00,
2013-01-03 19:12:00,16.5,13.0,30.33,West,268,6.0,6.0,86,0.00,,,0.00,Wunderground v.1.15,2013-01-04 01:12:00,
2013-01-03 19:18:00,16.2,12.7,30.33,WNW,288,4.0,6.0,86,0.00,,,0.00,Wunderground v.1.15,2013-01-04 01:18:00,
2013-01-03 19:24:00,16.1,12.7,30.33,West,268,4.0,5.0,86,0.00,,,0.00,Wunderground v.1.15,2013-01-04 01:24:00,
2013-01-03 19:29:00,15.9,12.7,30.33,WSW,258,4.0,5.0,87,0.00,,,0.00,Wunderground v.1.15,2013-01-04 01:29:00,
2013-01-03 19:35:00,16.1,12.9,30.33,West,280,5.0,6.0,87,0.00,,,0.00,Wunderground v.1.15,2013-01-04 01:35:00,
2013-01-03 19:40:00,16.0,12.6,30.34,WSW,252,6.0,7.0,86,0.00,,,0.00,Wunderground v.1.15,2013-01-04 01:40:00,
2013-01-03 19:45:00,15.9,12.7,30.34,West,268,7.0,7.0,87,0.00,,,0.00,Wunderground v.1.15,2013-01-04 01:45:00,
2013-01-03 19:51:00,16.1,12.9,30.34,West,272,7.0,7.0,87,0.00,,,0.00,Wunderground v.1.15,2013-01-04 01:51:00,
2013-01-03 19:56:00,16.1,12.7,30.34,West,263,7.0,8.0,86,0.00,,,0.00,Wunderground v.1.15,2013-01-04 01:56:00,
2013-01-03 20:02:00,15.9,12.5,30.34,WSW,258,7.0,8.0,86,0.00,,,0.00,Wunderground v.1.15,2013-01-04 02:02:00,
2013-01-03 20:07:00,16.2,13.0,30.34,West,274,7.0,9.0,87,0.00,,,0.00,Wunderground v.1.15,2013-01-04 02:07:00,
2013-01-03 20:12:00,16.4,12.9,30.33,West,271,8.0,10.0,86,0.00,,,0.00,Wunderground v.1.15,2013-01-04 02:12:00,
2013-01-03 20:18:00,16.4,12.9,30.34,West,277,9.0,10.0,86,0.00,,,0.00,Wunderground v.1.15,2013-01-04 02:18:00,
2013-01-03 20:23:00,16.3,12.8,30.33,West,264,9.0,9.0,86,0.00,,,0.00,Wunderground v.1.15,2013-01-04 02:23:00,
2013-01-03 20:28:00,15.9,12.2,30.33,West,269,8.0,9.0,85,0.00,,,0.00,Wunderground v.1.15,2013-01-04 02:28:00,
2013-01-03 20:34:00,15.7,12.3,30.33,West,272,8.0,8.0,86,0.00,,,0.00,Wunderground v.1.15,2013-01-04 02:34:00,
2013-01-03 20:39:00,15.6,12.2,30.33,West,271,8.0,8.0,86,0.00,,,0.00,Wunderground v.1.15,2013-01-04 02:39:00,
2013-01-03 20:45:00,16.0,12.8,30.33,West,272,8.0,8.0,87,0.00,,,0.00,Wunderground v.1.15,2013-01-04 02:45:00,
2013-01-03 20:50:00,16.1,12.7,30.34,WSW,249,7.0,7.0,86,0.00,,,0.00,Wunderground v.1.15,2013-01-04 02:50:00,
2013-01-03 20:55:00,16.0,12.6,30.33,West,260,7.0,7.0,86,0.00,,,0.00,Wunderground v.1.15,2013-01-04 02:55:00,
2013-01-03 21:00:00,16.1,12.7,30.33,West,264,8.0,8.0,86,0.00,,,0.00,Wunderground v.1.15,2013-01-04 03:00:00,
2013-01-03 21:06:00,16.2,12.7,30.33,WNW,282,8.0,10.0,86,0.00,,,0.00,Wunderground v.1.15,2013-01-04 03:06:00,
2013-01-03 21:11:00,16.2,12.5,30.33,WSW,249,8.0,8.0,85,0.00,,,0.00,Wunderground v.1.15,2013-01-04 03:11:00,
2013-01-03 21:16:00,15.3,11.3,30.33,West,260,6.0,8.0,84,0.00,,,0.00,Wunderground v.1.15,2013-01-04 03:16:00,
2013-01-03 21:22:00,15.1,11.9,30.33,West,263,5.0,8.0,87,0.00,,,0.00,Wunderground v.1.15,2013-01-04 03:22:00,
2013-01-03 21:27:00,15.8,12.6,30.33,WSW,256,7.0,8.0,87,0.00,,,0.00,Wunderground v.1.15,2013-01-04 03:27:00,
2013-01-03 21:33:00,15.3,11.6,30.34,WSW,251,7.0,9.0,85,0.00,,,0.00,Wunderground v.1.15,2013-01-04 03:33:00,
2013-01-03 21:38:00,15.0,11.6,30.34,WSW,256,8.0,10.0,86,0.00,,,0.00,Wunderground v.1.15,2013-01-04 03:38:00,
2013-01-03 21:43:00,15.0,11.3,30.34,WSW,246,8.0,8.0,85,0.00,,,0.00,Wunderground v.1.15,2013-01-04 03:43:00,
2013-01-03 21:48:00,15.0,11.8,30.34,WSW,248,7.0,9.0,87,0.00,,,0.00,Wunderground v.1.15,2013-01-04 03:48:00,
2013-01-03 21:53:00,15.6,12.4,30.34,SW,235,8.0,11.0,87,0.00,,,0.00,Wunderground v.1.15,2013-01-04 03:53:00,
2013-01-03 21:58:00,16.1,12.7,30.34,West,269,9.0,11.0,86,0.00,,,0.00,Wunderground v.1.15,2013-01-04 03:58:00,
2013-01-03 22:04:00,16.2,12.5,30.34,West,261,10.0,10.0,85,0.00,,,0.00,Wunderground v.1.15,2013-01-04 04:04:00,
2013-01-03 22:10:00,16.2,12.7,30.34,WSW,253,9.0,9.0,86,0.00,,,0.00,Wunderground v.1.15,2013-01-04 04:10:00,
2013-01-03 22:15:00,14.5,10.3,30.34,WSW,244,9.0,11.0,83,0.00,,,0.00,Wunderground v.1.15,2013-01-04 04:15:00,
2013-01-03 22:20:00,13.6,9.9,30.34,WSW,258,9.0,9.0,85,0.00,,,0.00,Wunderground v.1.15,2013-01-04 04:20:00,
2013-01-03 22:25:00,13.0,9.6,30.34,WSW,256,9.0,9.0,86,0.00,,,0.00,Wunderground v.1.15,2013-01-04 04:25:00,
2013-01-03 22:31:00,13.2,10.3,30.34,WSW,244,8.0,8.0,88,0.00,,,0.00,Wunderground v.1.15,2013-01-04 04:31:00,
2013-01-03 22:37:00,13.7,10.5,30.34,WSW,244,8.0,8.0,87,0.00,,,0.00,Wunderground v.1.15,2013-01-04 04:37:00,
2013-01-03 22:42:00,13.9,10.7,30.33,WSW,250,7.0,8.0,87,0.00,,,0.00,Wunderground v.1.15,2013-01-04 04:42:00,
2013-01-03 22:47:00,13.4,10.0,30.33,WSW,254,8.0,9.0,86,0.00,,,0.00,Wunderground v.1.15,2013-01-04 04:47:00,
2013-01-03 22:53:00,13.0,9.6,30.33,WSW,250,8.0,10.0,86,0.00,,,0.00,Wunderground v.1.15,2013-01-04 04:53:00,
2013-01-03 22:58:00,12.9,9.8,30.33,WSW,256,9.0,11.0,87,0.00,,,0.00,Wunderground v.1.15,2013-01-04 04:58:00,
2013-01-03 23:00:00,12.8,9.7,30.33,WSW,249,9.0,9.0,87,0.00,,,0.00,Wunderground v.1.15,2013-01-04 05:00:00,
2013-01-03 23:05:00,12.5,9.4,30.33,WSW,249,9.0,9.0,87,0.00,,,0.00,Wunderground v.1.15,2013-01-04 05:05:00,
2013-01-03 23:06:00,12.4,9.3,30.33,WSW,254,9.0,9.0,87,0.00,,,0.00,Wunderground v.1.15,2013-01-04 05:06:00,
2013-01-03 23:08:00,12.3,9.2,30.33,WSW,258,8.0,9.0,87,0.00,,,0.00,Wunderground v.1.15,2013-01-04 05:08:00,
2013-01-03 23:13:00,12.6,9.7,30.33,WSW,252,8.0,8.0,88,0.00,,,0.00,Wunderground v.1.15,2013-01-04 05:13:00,
2013-01-03 23:18:00,12.9,10.0,30.32,West,264,7.0,8.0,88,0.00,,,0.00,Wunderground v.1.15,2013-01-04 05:18:00,
2013-01-03 23:24:00,13.7,11.1,30.32,WSW,256,7.0,10.0,89,0.00,,,0.00,Wunderground v.1.15,2013-01-04 05:24:00,
2013-01-03 23:29:00,14.1,10.9,30.33,WSW,251,8.0,10.0,87,0.00,,,0.00,Wunderground v.1.15,2013-01-04 05:29:00,
2013-01-03 23:34:00,14.0,10.8,30.33,West,272,8.0,9.0,87,0.00,,,0.00,Wunderground v.1.15,2013-01-04 05:34:00,
2013-01-03 23:39:00,13.7,10.3,30.33,West,268,7.0,9.0,86,0.00,,,0.00,Wunderground v.1.15,2013-01-04 05:39:00,
2013-01-03 23:44:00,13.6,10.5,30.33,West,261,7.0,8.0,87,0.00,,,0.00,Wunderground v.1.15,2013-01-04 05:44:00,
2013-01-03 23:49:00,13.6,10.5,30.33,WSW,256,7.0,8.0,87,0.00,,,0.00,Wunderground v.1.15,2013-01-04 05:49:00,
2013-01-03 23:54:00,13.8,10.9,30.33,West,269,7.0,10.0,88,0.00,,,0.00,Wunderground v.1.15,2013-01-04 05:54:00,
2013-01-03 23:59:00,14.1,10.9,30.33,West,276,8.0,10.0,87,0.00,,,0.00,Wunderground v.1.15,2013-01-04 05:59:00,